sensor_id;sensor_type;location;lat;lon;timestamp;P1;durP1;ratioP1;P2;durP2;ratioP2
54123;SDS011;55741;53.252;5.788;2022-09-09T00:06:35;14.95;;;10.57;;
54123;SDS011;55741;53.252;5.788;2022-09-09T00:09:16;15.63;;;9.43;;
54123;SDS011;55741;53.252;5.788;2022-09-09T00:11:46;15.40;;;10.52;;
54123;SDS011;55741;53.252;5.788;2022-09-09T00:16:47;15.57;;;11.93;;
54123;SDS011;55741;53.252;5.788;2022-09-09T00:22:03;15.82;;;10.55;;
54123;SDS011;55741;53.252;5.788;2022-09-09T00:24:52;14.85;;;10.82;;
54123;SDS011;55741;53.252;5.788;2022-09-09T00:27:47;18.00;;;11.88;;
54123;SDS011;55741;53.252;5.788;2022-09-09T00:33:23;16.90;;;12.00;;
54123;SDS011;55741;53.252;5.788;2022-09-09T00:36:12;18.05;;;11.30;;
54123;SDS011;55741;53.252;5.788;2022-09-09T00:39:02;16.13;;;10.43;;
54123;SDS011;55741;53.252;5.788;2022-09-09T00:59:53;21.52;;;11.35;;
54123;SDS011;55741;53.252;5.788;2022-09-09T01:12:38;25.60;;;12.40;;
54123;SDS011;55741;53.252;5.788;2022-09-09T01:15:27;15.90;;;10.63;;
54123;SDS011;55741;53.252;5.788;2022-09-09T01:18:17;22.05;;;13.25;;
54123;SDS011;55741;53.252;5.788;2022-09-09T01:26:45;22.77;;;12.70;;
54123;SDS011;55741;53.252;5.788;2022-09-09T01:29:33;15.70;;;12.90;;
54123;SDS011;55741;53.252;5.788;2022-09-09T01:38:39;18.17;;;12.10;;
54123;SDS011;55741;53.252;5.788;2022-09-09T01:41:25;17.05;;;11.77;;
54123;SDS011;55741;53.252;5.788;2022-09-09T01:44:12;15.73;;;12.95;;
54123;SDS011;55741;53.252;5.788;2022-09-09T01:46:58;21.02;;;14.30;;
54123;SDS011;55741;53.252;5.788;2022-09-09T01:52:31;21.17;;;14.55;;
54123;SDS011;55741;53.252;5.788;2022-09-09T01:55:23;23.77;;;13.70;;
54123;SDS011;55741;53.252;5.788;2022-09-09T02:04:35;16.27;;;12.90;;
54123;SDS011;55741;53.252;5.788;2022-09-09T02:07:43;17.75;;;13.57;;
54123;SDS011;55741;53.252;5.788;2022-09-09T02:10:37;20.63;;;13.57;;
54123;SDS011;55741;53.252;5.788;2022-09-09T02:13:45;20.65;;;14.60;;
54123;SDS011;55741;53.252;5.788;2022-09-09T02:20:12;19.58;;;14.38;;
54123;SDS011;55741;53.252;5.788;2022-09-09T02:22:59;21.58;;;14.10;;
54123;SDS011;55741;53.252;5.788;2022-09-09T02:25:48;20.67;;;14.85;;
54123;SDS011;55741;53.252;5.788;2022-09-09T02:28:36;20.20;;;14.35;;
54123;SDS011;55741;53.252;5.788;2022-09-09T02:31:24;21.30;;;13.95;;
54123;SDS011;55741;53.252;5.788;2022-09-09T02:34:11;17.10;;;14.45;;
54123;SDS011;55741;53.252;5.788;2022-09-09T02:36:59;19.25;;;14.48;;
54123;SDS011;55741;53.252;5.788;2022-09-09T02:39:48;20.38;;;14.70;;
54123;SDS011;55741;53.252;5.788;2022-09-09T02:45:27;25.05;;;14.85;;
54123;SDS011;55741;53.252;5.788;2022-09-09T02:48:22;18.52;;;14.50;;
54123;SDS011;55741;53.252;5.788;2022-09-09T02:51:18;16.90;;;13.30;;
54123;SDS011;55741;53.252;5.788;2022-09-09T02:54:20;20.00;;;14.77;;
54123;SDS011;55741;53.252;5.788;2022-09-09T02:57:17;18.02;;;13.65;;
54123;SDS011;55741;53.252;5.788;2022-09-09T03:00:10;21.77;;;15.32;;
54123;SDS011;55741;53.252;5.788;2022-09-09T03:02:56;21.27;;;14.68;;
54123;SDS011;55741;53.252;5.788;2022-09-09T03:08:29;17.63;;;13.43;;
54123;SDS011;55741;53.252;5.788;2022-09-09T03:11:14;17.55;;;13.15;;
54123;SDS011;55741;53.252;5.788;2022-09-09T03:14:01;21.58;;;14.93;;
54123;SDS011;55741;53.252;5.788;2022-09-09T03:16:47;16.05;;;12.38;;
54123;SDS011;55741;53.252;5.788;2022-09-09T03:22:20;23.98;;;16.17;;
54123;SDS011;55741;53.252;5.788;2022-09-09T03:25:06;16.20;;;12.10;;
54123;SDS011;55741;53.252;5.788;2022-09-09T03:27:52;18.20;;;14.45;;
54123;SDS011;55741;53.252;5.788;2022-09-09T03:30:40;17.10;;;12.07;;
54123;SDS011;55741;53.252;5.788;2022-09-09T03:33:26;22.15;;;15.25;;
54123;SDS011;55741;53.252;5.788;2022-09-09T03:36:11;16.45;;;12.63;;
54123;SDS011;55741;53.252;5.788;2022-09-09T03:41:43;23.02;;;15.18;;
54123;SDS011;55741;53.252;5.788;2022-09-09T03:44:32;16.48;;;13.23;;
54123;SDS011;55741;53.252;5.788;2022-09-09T03:47:21;22.35;;;15.25;;
54123;SDS011;55741;53.252;5.788;2022-09-09T03:50:07;19.60;;;14.23;;
54123;SDS011;55741;53.252;5.788;2022-09-09T03:52:54;21.27;;;14.30;;
54123;SDS011;55741;53.252;5.788;2022-09-09T03:55:45;17.70;;;13.68;;
54123;SDS011;55741;53.252;5.788;2022-09-09T03:58:35;17.27;;;13.32;;
54123;SDS011;55741;53.252;5.788;2022-09-09T04:01:22;18.30;;;13.07;;
54123;SDS011;55741;53.252;5.788;2022-09-09T04:06:54;19.73;;;13.00;;
54123;SDS011;55741;53.252;5.788;2022-09-09T04:09:40;20.85;;;12.77;;
54123;SDS011;55741;53.252;5.788;2022-09-09T04:15:11;18.95;;;12.00;;
54123;SDS011;55741;53.252;5.788;2022-09-09T04:20:45;16.92;;;12.27;;
54123;SDS011;55741;53.252;5.788;2022-09-09T04:23:32;17.42;;;12.13;;
54123;SDS011;55741;53.252;5.788;2022-09-09T04:26:19;20.15;;;12.15;;
54123;SDS011;55741;53.252;5.788;2022-09-09T04:29:05;24.02;;;12.15;;
54123;SDS011;55741;53.252;5.788;2022-09-09T04:31:52;14.98;;;10.82;;
54123;SDS011;55741;53.252;5.788;2022-09-09T04:37:24;16.33;;;12.15;;
54123;SDS011;55741;53.252;5.788;2022-09-09T04:40:10;16.63;;;10.30;;
54123;SDS011;55741;53.252;5.788;2022-09-09T04:43:02;12.60;;;9.18;;
54123;SDS011;55741;53.252;5.788;2022-09-09T04:45:51;18.33;;;11.48;;
54123;SDS011;55741;53.252;5.788;2022-09-09T04:48:37;14.82;;;11.07;;
54123;SDS011;55741;53.252;5.788;2022-09-09T04:51:24;16.13;;;11.18;;
54123;SDS011;55741;53.252;5.788;2022-09-09T04:54:10;14.55;;;10.40;;
54123;SDS011;55741;53.252;5.788;2022-09-09T04:56:58;20.27;;;11.88;;
54123;SDS011;55741;53.252;5.788;2022-09-09T04:59:44;12.77;;;9.38;;
54123;SDS011;55741;53.252;5.788;2022-09-09T05:02:30;14.48;;;11.13;;
54123;SDS011;55741;53.252;5.788;2022-09-09T05:05:17;15.07;;;10.65;;
54123;SDS011;55741;53.252;5.788;2022-09-09T05:08:04;17.30;;;10.80;;
54123;SDS011;55741;53.252;5.788;2022-09-09T05:10:51;21.45;;;12.95;;
54123;SDS011;55741;53.252;5.788;2022-09-09T05:13:36;18.27;;;11.40;;
54123;SDS011;55741;53.252;5.788;2022-09-09T05:16:22;18.10;;;11.15;;
54123;SDS011;55741;53.252;5.788;2022-09-09T05:19:08;18.25;;;11.05;;
54123;SDS011;55741;53.252;5.788;2022-09-09T05:21:54;14.68;;;10.23;;
54123;SDS011;55741;53.252;5.788;2022-09-09T05:27:25;16.73;;;10.57;;
54123;SDS011;55741;53.252;5.788;2022-09-09T05:30:11;20.88;;;10.68;;
54123;SDS011;55741;53.252;5.788;2022-09-09T05:32:57;20.17;;;10.77;;
54123;SDS011;55741;53.252;5.788;2022-09-09T05:38:29;13.13;;;10.57;;
54123;SDS011;55741;53.252;5.788;2022-09-09T05:41:16;18.00;;;10.82;;
54123;SDS011;55741;53.252;5.788;2022-09-09T05:44:02;14.93;;;10.50;;
54123;SDS011;55741;53.252;5.788;2022-09-09T05:46:48;15.48;;;10.45;;
54123;SDS011;55741;53.252;5.788;2022-09-09T05:52:20;14.88;;;10.82;;
54123;SDS011;55741;53.252;5.788;2022-09-09T05:57:53;20.35;;;11.27;;
54123;SDS011;55741;53.252;5.788;2022-09-09T06:00:39;17.73;;;10.88;;
54123;SDS011;55741;53.252;5.788;2022-09-09T06:06:12;17.58;;;11.70;;
54123;SDS011;55741;53.252;5.788;2022-09-09T06:08:59;17.50;;;12.45;;
54123;SDS011;55741;53.252;5.788;2022-09-09T06:11:45;21.90;;;13.60;;
54123;SDS011;55741;53.252;5.788;2022-09-09T06:17:17;18.52;;;13.88;;
54123;SDS011;55741;53.252;5.788;2022-09-09T06:20:03;25.60;;;16.85;;
54123;SDS011;55741;53.252;5.788;2022-09-09T06:22:49;23.13;;;14.23;;
54123;SDS011;55741;53.252;5.788;2022-09-09T06:25:34;19.65;;;14.15;;
54123;SDS011;55741;53.252;5.788;2022-09-09T06:31:07;22.17;;;16.17;;
54123;SDS011;55741;53.252;5.788;2022-09-09T06:33:54;20.67;;;15.40;;
54123;SDS011;55741;53.252;5.788;2022-09-09T06:36:40;20.65;;;14.75;;
54123;SDS011;55741;53.252;5.788;2022-09-09T06:42:11;20.85;;;14.30;;
54123;SDS011;55741;53.252;5.788;2022-09-09T06:47:43;19.67;;;15.13;;
54123;SDS011;55741;53.252;5.788;2022-09-09T06:50:29;22.05;;;14.48;;
54123;SDS011;55741;53.252;5.788;2022-09-09T06:58:58;16.70;;;13.55;;
54123;SDS011;55741;53.252;5.788;2022-09-09T07:01:48;18.58;;;13.98;;
54123;SDS011;55741;53.252;5.788;2022-09-09T07:04:37;17.52;;;15.50;;
54123;SDS011;55741;53.252;5.788;2022-09-09T07:10:09;14.82;;;12.52;;
54123;SDS011;55741;53.252;5.788;2022-09-09T07:15:41;17.35;;;13.35;;
54123;SDS011;55741;53.252;5.788;2022-09-09T07:18:27;14.85;;;12.30;;
54123;SDS011;55741;53.252;5.788;2022-09-09T07:23:59;12.77;;;11.48;;
54123;SDS011;55741;53.252;5.788;2022-09-09T07:26:46;14.50;;;10.82;;
54123;SDS011;55741;53.252;5.788;2022-09-09T07:32:17;15.10;;;9.98;;
54123;SDS011;55741;53.252;5.788;2022-09-09T07:35:05;15.85;;;11.15;;
54123;SDS011;55741;53.252;5.788;2022-09-09T07:37:51;12.13;;;9.93;;
54123;SDS011;55741;53.252;5.788;2022-09-09T07:43:25;14.27;;;9.88;;
54123;SDS011;55741;53.252;5.788;2022-09-09T07:46:12;17.15;;;10.05;;
54123;SDS011;55741;53.252;5.788;2022-09-09T07:49:00;16.02;;;9.48;;
54123;SDS011;55741;53.252;5.788;2022-09-09T07:51:47;13.57;;;9.00;;
54123;SDS011;55741;53.252;5.788;2022-09-09T07:54:36;13.55;;;9.98;;
54123;SDS011;55741;53.252;5.788;2022-09-09T08:00:09;12.73;;;9.02;;
54123;SDS011;55741;53.252;5.788;2022-09-09T08:02:56;12.07;;;9.02;;
54123;SDS011;55741;53.252;5.788;2022-09-09T08:08:28;15.55;;;8.85;;
54123;SDS011;55741;53.252;5.788;2022-09-09T08:11:15;13.40;;;9.18;;
54123;SDS011;55741;53.252;5.788;2022-09-09T08:14:01;18.77;;;9.20;;
54123;SDS011;55741;53.252;5.788;2022-09-09T08:16:49;13.05;;;7.68;;
54123;SDS011;55741;53.252;5.788;2022-09-09T08:19:35;9.38;;;7.38;;
54123;SDS011;55741;53.252;5.788;2022-09-09T08:22:21;13.20;;;8.38;;
54123;SDS011;55741;53.252;5.788;2022-09-09T08:25:07;13.52;;;8.23;;
54123;SDS011;55741;53.252;5.788;2022-09-09T08:27:53;10.50;;;7.20;;
54123;SDS011;55741;53.252;5.788;2022-09-09T08:33:25;11.60;;;7.20;;
54123;SDS011;55741;53.252;5.788;2022-09-09T08:36:11;12.32;;;7.80;;
54123;SDS011;55741;53.252;5.788;2022-09-09T08:39:00;11.63;;;6.78;;
54123;SDS011;55741;53.252;5.788;2022-09-09T08:47:43;12.65;;;7.95;;
54123;SDS011;55741;53.252;5.788;2022-09-09T08:50:39;11.75;;;6.90;;
54123;SDS011;55741;53.252;5.788;2022-09-09T08:53:29;13.27;;;6.88;;
54123;SDS011;55741;53.252;5.788;2022-09-09T08:56:25;11.80;;;7.18;;
54123;SDS011;55741;53.252;5.788;2022-09-09T08:59:14;10.55;;;6.70;;
54123;SDS011;55741;53.252;5.788;2022-09-09T09:05:09;12.95;;;6.55;;
54123;SDS011;55741;53.252;5.788;2022-09-09T09:10:57;14.15;;;5.63;;
54123;SDS011;55741;53.252;5.788;2022-09-09T09:13:47;13.98;;;5.20;;
54123;SDS011;55741;53.252;5.788;2022-09-09T09:19:44;14.95;;;4.93;;
54123;SDS011;55741;53.252;5.788;2022-09-09T09:22:46;13.55;;;5.75;;
54123;SDS011;55741;53.252;5.788;2022-09-09T09:25:36;11.95;;;5.28;;
54123;SDS011;55741;53.252;5.788;2022-09-09T09:28:30;10.18;;;5.00;;
54123;SDS011;55741;53.252;5.788;2022-09-09T09:31:17;12.95;;;4.97;;
54123;SDS011;55741;53.252;5.788;2022-09-09T09:34:05;11.00;;;5.25;;
54123;SDS011;55741;53.252;5.788;2022-09-09T09:39:40;13.45;;;4.97;;
54123;SDS011;55741;53.252;5.788;2022-09-09T09:48:31;11.80;;;4.25;;
54123;SDS011;55741;53.252;5.788;2022-09-09T09:51:18;12.30;;;5.05;;
54123;SDS011;55741;53.252;5.788;2022-09-09T09:57:10;10.55;;;4.10;;
54123;SDS011;55741;53.252;5.788;2022-09-09T10:00:04;9.93;;;4.30;;
54123;SDS011;55741;53.252;5.788;2022-09-09T10:06:04;13.32;;;3.85;;
54123;SDS011;55741;53.252;5.788;2022-09-09T10:08:50;10.15;;;3.78;;
54123;SDS011;55741;53.252;5.788;2022-09-09T10:14:48;11.43;;;2.88;;
54123;SDS011;55741;53.252;5.788;2022-09-09T10:30:45;7.15;;;2.90;;
54123;SDS011;55741;53.252;5.788;2022-09-09T10:36:44;8.93;;;3.30;;
54123;SDS011;55741;53.252;5.788;2022-09-09T10:39:35;15.07;;;2.60;;
54123;SDS011;55741;53.252;5.788;2022-09-09T10:42:26;8.38;;;2.50;;
54123;SDS011;55741;53.252;5.788;2022-09-09T10:52:06;9.32;;;2.80;;
54123;SDS011;55741;53.252;5.788;2022-09-09T10:58:25;10.65;;;2.92;;
54123;SDS011;55741;53.252;5.788;2022-09-09T11:01:24;9.27;;;2.95;;
54123;SDS011;55741;53.252;5.788;2022-09-09T11:04:21;8.80;;;2.75;;
54123;SDS011;55741;53.252;5.788;2022-09-09T11:07:30;6.07;;;2.40;;
54123;SDS011;55741;53.252;5.788;2022-09-09T11:13:28;9.07;;;2.75;;
54123;SDS011;55741;53.252;5.788;2022-09-09T11:19:39;10.00;;;2.30;;
54123;SDS011;55741;53.252;5.788;2022-09-09T11:22:31;6.97;;;2.22;;
54123;SDS011;55741;53.252;5.788;2022-09-09T11:31:09;8.63;;;2.60;;
54123;SDS011;55741;53.252;5.788;2022-09-09T11:37:04;9.00;;;2.28;;
54123;SDS011;55741;53.252;5.788;2022-09-09T11:43:04;7.60;;;2.53;;
54123;SDS011;55741;53.252;5.788;2022-09-09T11:46:00;7.53;;;2.67;;
54123;SDS011;55741;53.252;5.788;2022-09-09T11:49:00;12.13;;;2.83;;
54123;SDS011;55741;53.252;5.788;2022-09-09T11:51:48;8.68;;;2.20;;
54123;SDS011;55741;53.252;5.788;2022-09-09T11:54:34;7.50;;;2.15;;
54123;SDS011;55741;53.252;5.788;2022-09-09T11:57:32;5.22;;;2.08;;
54123;SDS011;55741;53.252;5.788;2022-09-09T12:00:31;11.63;;;3.30;;
54123;SDS011;55741;53.252;5.788;2022-09-09T12:06:32;11.68;;;2.88;;
54123;SDS011;55741;53.252;5.788;2022-09-09T12:12:49;9.45;;;2.83;;
54123;SDS011;55741;53.252;5.788;2022-09-09T12:15:35;8.90;;;2.67;;
54123;SDS011;55741;53.252;5.788;2022-09-09T12:18:38;8.43;;;2.75;;
54123;SDS011;55741;53.252;5.788;2022-09-09T12:22:07;12.02;;;3.33;;
54123;SDS011;55741;53.252;5.788;2022-09-09T12:28:09;10.38;;;3.05;;
54123;SDS011;55741;53.252;5.788;2022-09-09T12:31:21;8.77;;;2.70;;
54123;SDS011;55741;53.252;5.788;2022-09-09T12:37:54;10.40;;;2.88;;
54123;SDS011;55741;53.252;5.788;2022-09-09T12:40:43;9.82;;;2.78;;
54123;SDS011;55741;53.252;5.788;2022-09-09T12:43:40;8.75;;;2.80;;
54123;SDS011;55741;53.252;5.788;2022-09-09T12:46:30;8.35;;;2.50;;
54123;SDS011;55741;53.252;5.788;2022-09-09T12:52:25;10.75;;;2.80;;
54123;SDS011;55741;53.252;5.788;2022-09-09T12:55:21;9.27;;;2.92;;
54123;SDS011;55741;53.252;5.788;2022-09-09T12:58:12;9.18;;;2.50;;
54123;SDS011;55741;53.252;5.788;2022-09-09T13:01:02;10.70;;;2.75;;
54123;SDS011;55741;53.252;5.788;2022-09-09T13:03:50;8.98;;;2.72;;
54123;SDS011;55741;53.252;5.788;2022-09-09T13:06:37;7.00;;;2.72;;
54123;SDS011;55741;53.252;5.788;2022-09-09T13:09:23;6.32;;;2.13;;
54123;SDS011;55741;53.252;5.788;2022-09-09T13:12:16;8.20;;;2.72;;
54123;SDS011;55741;53.252;5.788;2022-09-09T13:15:04;8.10;;;2.83;;
54123;SDS011;55741;53.252;5.788;2022-09-09T13:18:00;8.40;;;2.70;;
54123;SDS011;55741;53.252;5.788;2022-09-09T13:20:50;9.40;;;2.80;;
54123;SDS011;55741;53.252;5.788;2022-09-09T13:23:37;7.28;;;2.22;;
54123;SDS011;55741;53.252;5.788;2022-09-09T13:26:24;7.28;;;2.60;;
54123;SDS011;55741;53.252;5.788;2022-09-09T13:29:16;8.50;;;2.25;;
54123;SDS011;55741;53.252;5.788;2022-09-09T13:32:04;8.95;;;2.70;;
54123;SDS011;55741;53.252;5.788;2022-09-09T13:34:53;6.55;;;2.53;;
54123;SDS011;55741;53.252;5.788;2022-09-09T13:37:43;8.18;;;2.47;;
54123;SDS011;55741;53.252;5.788;2022-09-09T13:40:28;7.35;;;2.70;;
54123;SDS011;55741;53.252;5.788;2022-09-09T13:43:18;5.63;;;2.05;;
54123;SDS011;55741;53.252;5.788;2022-09-09T13:49:22;4.43;;;1.88;;
54123;SDS011;55741;53.252;5.788;2022-09-09T13:52:09;6.95;;;2.25;;
54123;SDS011;55741;53.252;5.788;2022-09-09T13:55:01;8.13;;;2.22;;
54123;SDS011;55741;53.252;5.788;2022-09-09T13:57:54;7.10;;;2.42;;
54123;SDS011;55741;53.252;5.788;2022-09-09T14:00:42;3.47;;;0.93;;
54123;SDS011;55741;53.252;5.788;2022-09-09T14:03:29;7.15;;;1.40;;
54123;SDS011;55741;53.252;5.788;2022-09-09T14:06:15;4.28;;;1.80;;
54123;SDS011;55741;53.252;5.788;2022-09-09T14:09:02;4.82;;;1.67;;
54123;SDS011;55741;53.252;5.788;2022-09-09T14:11:49;5.00;;;1.80;;
54123;SDS011;55741;53.252;5.788;2022-09-09T14:14:34;8.32;;;2.33;;
54123;SDS011;55741;53.252;5.788;2022-09-09T14:17:21;7.60;;;2.80;;
54123;SDS011;55741;53.252;5.788;2022-09-09T14:20:07;7.45;;;2.72;;
54123;SDS011;55741;53.252;5.788;2022-09-09T14:22:54;10.10;;;2.70;;
54123;SDS011;55741;53.252;5.788;2022-09-09T14:25:42;10.15;;;2.65;;
54123;SDS011;55741;53.252;5.788;2022-09-09T14:28:28;6.45;;;2.20;;
54123;SDS011;55741;53.252;5.788;2022-09-09T14:31:14;9.60;;;2.80;;
54123;SDS011;55741;53.252;5.788;2022-09-09T14:34:01;5.10;;;2.15;;
54123;SDS011;55741;53.252;5.788;2022-09-09T14:36:46;6.15;;;2.13;;
54123;SDS011;55741;53.252;5.788;2022-09-09T14:39:32;5.85;;;1.95;;
54123;SDS011;55741;53.252;5.788;2022-09-09T14:42:18;7.53;;;2.50;;
54123;SDS011;55741;53.252;5.788;2022-09-09T14:45:04;5.50;;;2.33;;
54123;SDS011;55741;53.252;5.788;2022-09-09T14:47:51;6.07;;;2.00;;
54123;SDS011;55741;53.252;5.788;2022-09-09T14:50:37;5.95;;;2.20;;
54123;SDS011;55741;53.252;5.788;2022-09-09T14:53:25;6.47;;;2.50;;
54123;SDS011;55741;53.252;5.788;2022-09-09T14:56:18;6.78;;;2.38;;
54123;SDS011;55741;53.252;5.788;2022-09-09T14:59:07;6.47;;;2.30;;
54123;SDS011;55741;53.252;5.788;2022-09-09T15:01:52;8.10;;;2.53;;
54123;SDS011;55741;53.252;5.788;2022-09-09T15:04:38;5.13;;;2.33;;
54123;SDS011;55741;53.252;5.788;2022-09-09T15:07:24;6.80;;;2.20;;
54123;SDS011;55741;53.252;5.788;2022-09-09T15:09:54;7.22;;;2.53;;
54123;SDS011;55741;53.252;5.788;2022-09-09T15:12:22;4.65;;;1.48;;
54123;SDS011;55741;53.252;5.788;2022-09-09T15:14:49;2.60;;;1.20;;
54123;SDS011;55741;53.252;5.788;2022-09-09T15:17:17;4.18;;;1.75;;
54123;SDS011;55741;53.252;5.788;2022-09-09T15:19:42;4.10;;;1.45;;
54123;SDS011;55741;53.252;5.788;2022-09-09T15:22:08;4.72;;;1.80;;
54123;SDS011;55741;53.252;5.788;2022-09-09T15:24:34;11.20;;;2.58;;
54123;SDS011;55741;53.252;5.788;2022-09-09T15:27:00;9.32;;;2.55;;
54123;SDS011;55741;53.252;5.788;2022-09-09T15:29:27;6.05;;;2.72;;
54123;SDS011;55741;53.252;5.788;2022-09-09T15:31:53;8.68;;;2.72;;
54123;SDS011;55741;53.252;5.788;2022-09-09T15:34:20;4.40;;;2.17;;
54123;SDS011;55741;53.252;5.788;2022-09-09T15:36:47;5.78;;;2.17;;
54123;SDS011;55741;53.252;5.788;2022-09-09T15:39:17;5.97;;;2.33;;
54123;SDS011;55741;53.252;5.788;2022-09-09T15:41:46;4.75;;;1.77;;
54123;SDS011;55741;53.252;5.788;2022-09-09T15:44:13;6.18;;;2.50;;
54123;SDS011;55741;53.252;5.788;2022-09-09T15:46:42;8.55;;;3.65;;
54123;SDS011;55741;53.252;5.788;2022-09-09T15:51:37;7.45;;;4.00;;
54123;SDS011;55741;53.252;5.788;2022-09-09T15:54:04;7.25;;;4.05;;
54123;SDS011;55741;53.252;5.788;2022-09-09T15:56:31;8.88;;;4.60;;
54123;SDS011;55741;53.252;5.788;2022-09-09T15:58:58;7.78;;;3.90;;
54123;SDS011;55741;53.252;5.788;2022-09-09T16:01:28;11.57;;;4.70;;
54123;SDS011;55741;53.252;5.788;2022-09-09T16:03:56;10.93;;;4.55;;
54123;SDS011;55741;53.252;5.788;2022-09-09T16:06:23;12.30;;;4.90;;
54123;SDS011;55741;53.252;5.788;2022-09-09T16:08:51;7.97;;;4.40;;
54123;SDS011;55741;53.252;5.788;2022-09-09T16:11:19;8.65;;;4.22;;
54123;SDS011;55741;53.252;5.788;2022-09-09T16:13:50;8.50;;;4.85;;
54123;SDS011;55741;53.252;5.788;2022-09-09T16:16:19;10.73;;;4.60;;
54123;SDS011;55741;53.252;5.788;2022-09-09T16:18:52;8.20;;;4.32;;
54123;SDS011;55741;53.252;5.788;2022-09-09T16:21:24;8.40;;;4.80;;
54123;SDS011;55741;53.252;5.788;2022-09-09T16:23:58;6.63;;;4.40;;
54123;SDS011;55741;53.252;5.788;2022-09-09T16:26:25;7.55;;;4.03;;
54123;SDS011;55741;53.252;5.788;2022-09-09T16:28:52;7.15;;;3.50;;
54123;SDS011;55741;53.252;5.788;2022-09-09T16:31:20;7.72;;;4.30;;
54123;SDS011;55741;53.252;5.788;2022-09-09T16:33:48;7.70;;;3.90;;
54123;SDS011;55741;53.252;5.788;2022-09-09T16:36:22;6.45;;;4.00;;
54123;SDS011;55741;53.252;5.788;2022-09-09T16:38:58;7.85;;;4.15;;
54123;SDS011;55741;53.252;5.788;2022-09-09T16:41:26;5.93;;;4.03;;
54123;SDS011;55741;53.252;5.788;2022-09-09T16:43:53;10.15;;;4.30;;
54123;SDS011;55741;53.252;5.788;2022-09-09T16:46:25;9.40;;;3.30;;
54123;SDS011;55741;53.252;5.788;2022-09-09T16:48:53;6.68;;;4.13;;
54123;SDS011;55741;53.252;5.788;2022-09-09T16:51:21;8.18;;;4.28;;
54123;SDS011;55741;53.252;5.788;2022-09-09T16:53:49;11.05;;;5.07;;
54123;SDS011;55741;53.252;5.788;2022-09-09T16:56:16;5.40;;;4.43;;
54123;SDS011;55741;53.252;5.788;2022-09-09T16:58:51;7.40;;;3.90;;
54123;SDS011;55741;53.252;5.788;2022-09-09T17:01:20;7.00;;;3.53;;
54123;SDS011;55741;53.252;5.788;2022-09-09T17:03:56;8.15;;;3.85;;
54123;SDS011;55741;53.252;5.788;2022-09-09T17:06:22;6.03;;;3.10;;
54123;SDS011;55741;53.252;5.788;2022-09-09T17:08:56;4.65;;;2.45;;
54123;SDS011;55741;53.252;5.788;2022-09-09T17:11:23;4.65;;;1.90;;
54123;SDS011;55741;53.252;5.788;2022-09-09T17:13:50;5.35;;;2.35;;
54123;SDS011;55741;53.252;5.788;2022-09-09T17:16:18;5.20;;;2.50;;
54123;SDS011;55741;53.252;5.788;2022-09-09T17:18:47;5.70;;;2.90;;
54123;SDS011;55741;53.252;5.788;2022-09-09T17:21:15;5.20;;;3.28;;
54123;SDS011;55741;53.252;5.788;2022-09-09T17:23:43;5.25;;;2.67;;
54123;SDS011;55741;53.252;5.788;2022-09-09T17:26:11;3.83;;;1.40;;
54123;SDS011;55741;53.252;5.788;2022-09-09T17:28:38;3.90;;;1.50;;
54123;SDS011;55741;53.252;5.788;2022-09-09T17:31:06;5.93;;;1.95;;
54123;SDS011;55741;53.252;5.788;2022-09-09T17:33:34;3.78;;;1.50;;
54123;SDS011;55741;53.252;5.788;2022-09-09T17:36:02;4.80;;;1.40;;
54123;SDS011;55741;53.252;5.788;2022-09-09T17:38:39;5.18;;;1.85;;
54123;SDS011;55741;53.252;5.788;2022-09-09T17:41:27;3.65;;;1.70;;
54123;SDS011;55741;53.252;5.788;2022-09-09T17:44:01;3.08;;;1.60;;
54123;SDS011;55741;53.252;5.788;2022-09-09T17:46:29;4.25;;;1.90;;
54123;SDS011;55741;53.252;5.788;2022-09-09T17:48:59;4.18;;;2.10;;
54123;SDS011;55741;53.252;5.788;2022-09-09T17:51:28;3.88;;;2.03;;
54123;SDS011;55741;53.252;5.788;2022-09-09T17:53:59;4.78;;;2.38;;
54123;SDS011;55741;53.252;5.788;2022-09-09T17:56:27;4.57;;;2.50;;
54123;SDS011;55741;53.252;5.788;2022-09-09T17:58:56;8.07;;;3.03;;
54123;SDS011;55741;53.252;5.788;2022-09-09T18:01:26;4.75;;;3.10;;
54123;SDS011;55741;53.252;5.788;2022-09-09T18:03:56;5.13;;;3.42;;
54123;SDS011;55741;53.252;5.788;2022-09-09T18:06:29;7.13;;;3.45;;
54123;SDS011;55741;53.252;5.788;2022-09-09T18:08:59;6.85;;;3.40;;
54123;SDS011;55741;53.252;5.788;2022-09-09T18:11:30;6.35;;;3.75;;
54123;SDS011;55741;53.252;5.788;2022-09-09T18:13:59;7.63;;;3.92;;
54123;SDS011;55741;53.252;5.788;2022-09-09T18:16:28;6.97;;;3.65;;
54123;SDS011;55741;53.252;5.788;2022-09-09T18:18:55;5.82;;;4.20;;
54123;SDS011;55741;53.252;5.788;2022-09-09T18:21:29;7.18;;;4.25;;
54123;SDS011;55741;53.252;5.788;2022-09-09T18:24:01;7.70;;;5.15;;
54123;SDS011;55741;53.252;5.788;2022-09-09T18:26:29;7.55;;;4.32;;
54123;SDS011;55741;53.252;5.788;2022-09-09T18:28:58;8.23;;;4.38;;
54123;SDS011;55741;53.252;5.788;2022-09-09T18:31:28;9.48;;;5.05;;
54123;SDS011;55741;53.252;5.788;2022-09-09T18:33:55;8.57;;;4.57;;
54123;SDS011;55741;53.252;5.788;2022-09-09T18:36:27;6.80;;;4.78;;
54123;SDS011;55741;53.252;5.788;2022-09-09T18:38:55;8.32;;;5.43;;
54123;SDS011;55741;53.252;5.788;2022-09-09T18:41:24;8.27;;;5.13;;
54123;SDS011;55741;53.252;5.788;2022-09-09T18:43:56;10.13;;;6.07;;
54123;SDS011;55741;53.252;5.788;2022-09-09T18:46:24;8.32;;;4.80;;
54123;SDS011;55741;53.252;5.788;2022-09-09T18:48:51;8.20;;;5.50;;
54123;SDS011;55741;53.252;5.788;2022-09-09T18:51:19;8.90;;;5.28;;
54123;SDS011;55741;53.252;5.788;2022-09-09T18:53:50;6.18;;;5.00;;
54123;SDS011;55741;53.252;5.788;2022-09-09T18:56:23;9.35;;;5.57;;
54123;SDS011;55741;53.252;5.788;2022-09-09T18:58:52;11.10;;;5.85;;
54123;SDS011;55741;53.252;5.788;2022-09-09T19:01:20;10.25;;;5.65;;
54123;SDS011;55741;53.252;5.788;2022-09-09T19:03:46;11.43;;;5.53;;
54123;SDS011;55741;53.252;5.788;2022-09-09T19:06:14;11.88;;;5.88;;
54123;SDS011;55741;53.252;5.788;2022-09-09T19:08:43;8.98;;;4.95;;
54123;SDS011;55741;53.252;5.788;2022-09-09T19:11:12;12.68;;;5.72;;
54123;SDS011;55741;53.252;5.788;2022-09-09T19:13:40;12.63;;;6.05;;
54123;SDS011;55741;53.252;5.788;2022-09-09T19:16:08;10.25;;;5.70;;
54123;SDS011;55741;53.252;5.788;2022-09-09T19:18:36;10.82;;;5.88;;
54123;SDS011;55741;53.252;5.788;2022-09-09T19:23:36;12.88;;;6.28;;
54123;SDS011;55741;53.252;5.788;2022-09-09T19:26:03;11.23;;;6.47;;
54123;SDS011;55741;53.252;5.788;2022-09-09T19:28:31;15.05;;;7.28;;
54123;SDS011;55741;53.252;5.788;2022-09-09T19:31:03;8.43;;;5.68;;
54123;SDS011;55741;53.252;5.788;2022-09-09T19:33:33;9.88;;;6.55;;
54123;SDS011;55741;53.252;5.788;2022-09-09T19:36:00;8.23;;;6.55;;
54123;SDS011;55741;53.252;5.788;2022-09-09T19:38:29;11.52;;;6.30;;
54123;SDS011;55741;53.252;5.788;2022-09-09T19:40:55;10.98;;;6.38;;
54123;SDS011;55741;53.252;5.788;2022-09-09T19:43:27;12.38;;;6.30;;
54123;SDS011;55741;53.252;5.788;2022-09-09T19:45:56;15.23;;;6.38;;
54123;SDS011;55741;53.252;5.788;2022-09-09T19:48:28;10.10;;;6.35;;
54123;SDS011;55741;53.252;5.788;2022-09-09T19:50:59;10.10;;;6.38;;
54123;SDS011;55741;53.252;5.788;2022-09-09T19:53:40;9.02;;;6.30;;
54123;SDS011;55741;53.252;5.788;2022-09-09T19:56:08;10.38;;;7.07;;
54123;SDS011;55741;53.252;5.788;2022-09-09T19:58:35;13.25;;;7.07;;
54123;SDS011;55741;53.252;5.788;2022-09-09T20:01:13;9.25;;;7.00;;
54123;SDS011;55741;53.252;5.788;2022-09-09T20:03:42;11.07;;;7.00;;
54123;SDS011;55741;53.252;5.788;2022-09-09T20:06:10;11.25;;;7.10;;
54123;SDS011;55741;53.252;5.788;2022-09-09T20:08:38;12.63;;;7.40;;